createdAt,value
2023-05-21T00:00:10.610Z,58.8754
2023-05-21T00:01:12.406Z,58.8913
2023-05-21T00:02:14.061Z,58.9003
2023-05-21T00:03:15.925Z,58.9026
2023-05-21T00:04:17.539Z,58.9245
2023-05-21T00:05:19.248Z,58.9387
2023-05-21T00:06:21.199Z,58.8981
2023-05-21T00:07:22.685Z,58.8687
2023-05-21T00:08:24.426Z,58.8955
2023-05-21T00:09:26.168Z,58.8902
2023-05-21T00:10:27.833Z,58.8801
2023-05-21T00:11:29.580Z,58.8879
2023-05-21T00:12:31.301Z,58.8911
2023-05-21T00:13:33.003Z,58.8687
2023-05-21T00:14:34.749Z,58.8879
2023-05-21T00:15:36.670Z,58.9127
2023-05-21T00:16:38.324Z,58.8779
2023-05-21T00:17:40.112Z,58.8624
2023-05-21T00:18:41.657Z,58.8643
2023-05-21T00:19:43.338Z,58.8369
2023-05-21T00:20:45.064Z,58.8555
2023-05-21T00:21:46.788Z,58.8333
2023-05-21T00:22:48.516Z,58.8437
2023-05-21T00:23:50.261Z,58.8313
2023-05-21T00:24:51.953Z,58.8053
2023-05-21T00:25:53.693Z,58.8103
2023-05-21T00:26:55.412Z,58.7767
2023-05-21T00:27:57.115Z,58.7626
2023-05-21T00:28:58.850Z,58.7239
2023-05-21T00:30:00.573Z,58.7151
2023-05-21T00:31:02.303Z,58.6995
2023-05-21T00:32:04.096Z,58.6700
2023-05-21T00:33:05.769Z,58.6340
2023-05-21T00:34:07.490Z,58.6220
2023-05-21T00:35:09.196Z,58.6353
2023-05-21T00:36:10.893Z,58.5702
2023-05-21T00:37:12.646Z,58.5631
2023-05-21T00:38:14.362Z,58.5240
2023-05-21T00:39:16.060Z,58.4983
2023-05-21T00:40:17.802Z,58.4735
2023-05-21T00:41:19.533Z,58.4800
2023-05-21T00:42:21.235Z,58.4459
2023-05-21T00:43:22.962Z,58.4593
2023-05-21T00:44:24.705Z,58.4633
2023-05-21T00:45:26.428Z,58.4560
2023-05-21T00:46:28.144Z,58.4356
2023-05-21T00:47:30.000Z,58.4686
2023-05-21T00:48:31.594Z,58.4496
2023-05-21T00:49:33.297Z,58.4391
2023-05-21T00:50:35.018Z,58.3953
2023-05-21T00:51:36.768Z,58.3766
2023-05-21T00:52:38.559Z,58.3649
2023-05-21T00:53:40.192Z,58.3588
2023-05-21T00:54:41.941Z,58.3356
2023-05-21T00:55:43.668Z,58.3247
2023-05-21T00:56:45.398Z,58.3010
2023-05-21T00:57:47.090Z,58.2990
2023-05-21T00:58:48.830Z,58.2769
2023-05-21T00:59:50.578Z,58.2562
2023-05-21T01:00:52.304Z,58.2514
2023-05-21T01:01:54.005Z,58.2636
2023-05-21T01:02:55.780Z,58.2704
2023-05-21T01:03:57.445Z,58.2551
2023-05-21T01:04:59.159Z,58.2327
2023-05-21T01:06:00.916Z,58.2307
2023-05-21T01:07:02.621Z,58.2349
2023-05-21T01:08:04.327Z,58.2241
2023-05-21T01:09:06.070Z,58.2278
2023-05-21T01:10:07.907Z,58.2041
2023-05-21T01:11:09.485Z,58.2244
2023-05-21T01:12:11.213Z,58.2039
2023-05-21T01:13:12.961Z,58.1885
2023-05-21T01:14:14.670Z,58.2180
2023-05-21T01:15:16.384Z,58.2397
2023-05-21T01:16:18.176Z,58.1915
2023-05-21T01:17:19.866Z,58.2052
2023-05-21T01:18:21.569Z,58.1902
2023-05-21T01:19:23.334Z,58.1971
2023-05-21T01:20:25.038Z,58.2235
2023-05-21T01:21:26.729Z,58.2498
2023-05-21T01:22:28.504Z,58.2304
2023-05-21T01:23:30.203Z,58.2261
2023-05-21T01:24:31.892Z,58.2309
2023-05-21T01:25:33.755Z,58.2024
2023-05-21T01:26:35.368Z,58.1788
2023-05-21T01:27:37.074Z,58.1427
2023-05-21T01:28:38.800Z,58.1831
2023-05-21T01:29:40.534Z,58.1862
2023-05-21T01:30:42.260Z,58.1694
2023-05-21T01:31:43.983Z,58.1392
2023-05-21T01:32:45.776Z,58.1412
2023-05-21T01:33:47.483Z,58.1537
2023-05-21T01:34:49.156Z,58.1410
2023-05-21T01:35:50.856Z,58.1263
2023-05-21T01:36:52.580Z,58.1226
2023-05-21T01:37:54.330Z,58.1095
2023-05-21T01:38:56.056Z,58.1060
2023-05-21T01:39:57.753Z,58.1054
2023-05-21T01:40:59.489Z,58.1013
2023-05-21T01:42:01.203Z,58.0993
2023-05-21T01:43:02.926Z,58.0845
2023-05-21T01:44:04.703Z,58.0503
2023-05-21T01:45:06.399Z,58.0785
2023-05-21T01:46:08.138Z,58.0662
2023-05-21T01:47:09.833Z,58.0669
2023-05-21T01:48:11.565Z,58.0449
2023-05-21T01:49:13.269Z,58.0161
2023-05-21T01:50:15.013Z,58.0033
2023-05-21T01:51:16.738Z,58.0600
2023-05-21T01:52:18.427Z,58.0535
2023-05-21T01:53:20.157Z,58.0208
2023-05-21T01:54:21.901Z,58.0291
2023-05-21T01:55:23.599Z,58.0282
2023-05-21T01:56:25.327Z,58.0172
2023-05-21T01:57:27.102Z,58.0119
2023-05-21T01:58:28.772Z,57.9947
2023-05-21T01:59:30.513Z,58.0146
2023-05-21T02:00:32.245Z,58.0167
2023-05-21T02:01:33.972Z,58.0203
2023-05-21T02:02:35.812Z,58.0166
2023-05-21T02:03:37.507Z,57.9984
2023-05-21T02:04:39.131Z,57.9952
2023-05-21T02:05:40.866Z,58.0304
2023-05-21T02:06:42.573Z,58.0008
2023-05-21T02:07:44.317Z,58.0055
2023-05-21T02:08:46.013Z,57.9929
2023-05-21T02:09:47.775Z,58.0146
2023-05-21T02:10:49.463Z,58.0191
2023-05-21T02:11:50.995Z,58.0379
2023-05-21T02:12:54.847Z,58.0350
2023-05-21T02:16:05.009Z,58.0674
2023-05-21T02:17:06.595Z,58.0295
2023-05-21T02:18:08.387Z,58.0634
2023-05-21T02:19:10.250Z,58.0945
2023-05-21T02:20:11.865Z,58.1021
2023-05-21T02:21:13.525Z,58.1211
2023-05-21T02:22:15.215Z,58.1437
2023-05-21T02:23:16.946Z,58.1234
2023-05-21T02:24:18.737Z,58.1187
2023-05-21T02:25:20.428Z,58.1668
2023-05-21T02:26:22.151Z,58.1464
2023-05-21T02:27:23.856Z,58.1660
2023-05-21T02:28:25.591Z,58.1642
2023-05-21T02:29:27.317Z,58.1473
2023-05-21T02:30:29.043Z,58.1579
2023-05-21T02:31:30.744Z,58.1371
2023-05-21T02:32:32.580Z,58.1642
2023-05-21T02:33:34.290Z,58.1384
2023-05-21T02:34:35.949Z,58.1143
2023-05-21T02:35:37.837Z,58.1319
2023-05-21T02:36:39.394Z,58.1289
2023-05-21T02:37:41.118Z,58.1201
2023-05-21T02:38:42.835Z,58.1068
2023-05-21T02:39:44.573Z,58.1142
2023-05-21T02:40:46.308Z,58.1181
2023-05-21T02:41:48.005Z,58.1215
2023-05-21T02:42:49.742Z,58.0965
2023-05-21T02:43:51.461Z,58.1010
2023-05-21T02:44:53.175Z,58.0824
2023-05-21T02:45:54.957Z,58.0869
2023-05-21T02:46:56.628Z,58.0771
2023-05-21T02:47:58.429Z,58.0762
2023-05-21T02:49:00.105Z,58.0599
2023-05-21T02:50:01.826Z,58.0586
2023-05-21T02:51:03.554Z,58.0672
2023-05-21T02:52:05.247Z,58.0663
2023-05-21T02:53:06.975Z,58.0317
2023-05-21T02:54:08.720Z,58.0352
2023-05-21T02:55:10.421Z,58.0069
2023-05-21T02:56:12.162Z,57.9520
2023-05-21T02:57:13.903Z,57.9440
2023-05-21T02:58:15.608Z,57.9223
2023-05-21T02:59:17.346Z,57.9171
2023-05-21T03:00:19.089Z,57.9191
2023-05-21T03:01:20.835Z,57.9022
2023-05-21T03:02:22.758Z,57.8784
2023-05-21T03:03:24.382Z,57.8669
2023-05-21T03:04:25.974Z,57.8457
2023-05-21T03:05:27.697Z,57.8259
2023-05-21T03:06:29.440Z,57.8135
2023-05-21T03:07:31.169Z,57.8128
2023-05-21T03:08:32.872Z,57.8200
2023-05-21T03:09:34.617Z,57.8353
2023-05-21T03:10:36.350Z,57.8113
2023-05-21T03:11:38.077Z,57.8176
2023-05-21T03:12:39.792Z,57.7918
2023-05-21T03:13:41.551Z,57.7504
2023-05-21T03:14:43.263Z,57.6716
2023-05-21T03:15:44.956Z,57.6390
2023-05-21T03:16:46.731Z,57.6170
2023-05-21T03:17:48.460Z,57.5879
2023-05-21T03:18:50.174Z,57.5543
2023-05-21T03:19:51.863Z,57.5298
2023-05-21T03:20:53.661Z,57.5115
2023-05-21T03:21:55.341Z,57.4705
2023-05-21T03:22:57.069Z,57.4799
2023-05-21T03:23:58.802Z,57.4541
2023-05-21T03:25:00.489Z,57.4354
2023-05-21T03:26:02.260Z,57.4535
2023-05-21T03:27:03.972Z,57.4226
2023-05-21T03:28:05.663Z,57.4338
2023-05-21T03:29:07.420Z,57.4303
2023-05-21T03:30:09.165Z,57.4290
2023-05-21T03:31:10.839Z,57.4325
2023-05-21T03:32:12.683Z,57.4284
2023-05-21T03:33:14.324Z,57.4100
2023-05-21T03:34:16.010Z,57.3918
2023-05-21T03:35:17.763Z,57.4101
2023-05-21T03:36:19.482Z,57.4236
2023-05-21T03:37:21.196Z,57.3824
2023-05-21T03:38:22.907Z,57.3536
2023-05-21T03:39:24.657Z,57.3058
2023-05-21T03:40:26.390Z,57.2891
2023-05-21T03:41:28.116Z,57.2874
2023-05-21T03:42:29.824Z,57.3027
2023-05-21T03:43:31.565Z,57.2778
2023-05-21T03:44:33.258Z,57.2611
2023-05-21T03:45:35.135Z,57.2427
2023-05-21T03:46:36.813Z,57.2584
2023-05-21T03:47:38.547Z,57.3017
2023-05-21T03:48:40.160Z,57.3010
2023-05-21T03:49:41.898Z,57.2852
2023-05-21T03:50:43.632Z,57.3029
2023-05-21T03:51:45.324Z,57.2718
2023-05-21T03:52:47.080Z,57.2941
2023-05-21T03:53:48.800Z,57.2649
2023-05-21T03:54:50.500Z,57.2643
2023-05-21T03:55:52.236Z,57.2994
2023-05-21T03:56:53.976Z,57.3043
2023-05-21T03:57:55.693Z,57.2889
2023-05-21T03:58:57.404Z,57.2911
2023-05-21T03:59:59.173Z,57.2960
2023-05-21T04:01:00.852Z,57.3152
2023-05-21T04:02:02.572Z,57.3476
2023-05-21T04:03:04.415Z,57.3354
2023-05-21T04:04:06.222Z,57.3727
2023-05-21T04:05:07.753Z,57.3933
2023-05-21T04:06:09.508Z,57.3770
2023-05-21T04:07:11.197Z,57.3585
2023-05-21T04:08:12.957Z,57.4017
2023-05-21T04:09:14.653Z,57.4148
2023-05-21T04:10:16.368Z,57.4183
2023-05-21T04:11:18.107Z,57.4339
2023-05-21T04:12:19.853Z,57.4739
2023-05-21T04:13:21.573Z,57.4663
2023-05-21T04:14:23.311Z,57.4474
2023-05-21T04:15:25.008Z,57.4743
2023-05-21T04:16:26.741Z,57.4705
2023-05-21T04:17:28.453Z,57.4732
2023-05-21T04:18:30.245Z,57.4692
2023-05-21T04:19:31.978Z,57.5029
2023-05-21T04:20:33.644Z,57.5020
2023-05-21T04:21:35.346Z,57.5150
2023-05-21T04:22:37.060Z,57.4994
2023-05-21T04:23:38.824Z,57.4750
2023-05-21T04:24:40.499Z,57.4432
2023-05-21T04:25:42.246Z,57.3909
2023-05-21T04:26:43.968Z,57.3701
2023-05-21T04:27:45.670Z,57.3487
2023-05-21T04:28:47.449Z,57.3372
2023-05-21T04:29:50.702Z,57.3131
2023-05-21T04:30:50.861Z,57.3354
2023-05-21T04:31:52.620Z,57.3067
2023-05-21T04:32:54.315Z,57.2949
2023-05-21T04:33:56.028Z,57.3044
2023-05-21T04:34:57.733Z,57.3092
2023-05-21T04:35:59.486Z,57.3064
2023-05-21T04:37:01.183Z,57.2996
2023-05-21T04:38:04.194Z,57.3063
2023-05-21T04:40:05.504Z,57.3213
2023-05-21T04:41:07.158Z,57.2752
2023-05-21T04:42:08.879Z,57.3169
2023-05-21T04:43:10.711Z,57.3473
2023-05-21T04:44:12.327Z,57.3366
2023-05-21T04:45:14.031Z,57.3645
2023-05-21T04:46:15.865Z,57.3422
2023-05-21T04:47:17.545Z,57.3571
2023-05-21T04:48:19.271Z,57.3490
2023-05-21T04:49:20.979Z,57.3496
2023-05-21T04:50:22.669Z,57.3715
2023-05-21T04:51:24.400Z,57.3629
2023-05-21T04:52:26.093Z,57.3992
2023-05-21T04:53:27.824Z,57.4327
2023-05-21T04:54:29.581Z,57.4470
2023-05-21T04:55:31.269Z,57.4215
2023-05-21T04:56:33.030Z,57.4231
2023-05-21T04:57:34.734Z,57.4429
2023-05-21T04:58:36.438Z,57.4514
2023-05-21T04:59:38.155Z,57.4791
2023-05-21T05:00:39.930Z,57.4674
2023-05-21T05:01:41.604Z,57.4355
2023-05-21T05:02:43.538Z,57.4534
2023-05-21T05:03:45.127Z,57.4459
2023-05-21T05:04:46.809Z,57.4155
2023-05-21T05:05:48.513Z,57.3825
2023-05-21T05:06:50.244Z,57.3504
2023-05-21T05:07:51.983Z,57.3375
2023-05-21T05:08:53.674Z,57.3230
2023-05-21T05:09:55.416Z,57.3084
2023-05-21T05:10:57.153Z,57.2867
2023-05-21T05:11:58.842Z,57.2656
2023-05-21T05:13:00.567Z,57.2330
2023-05-21T05:14:02.308Z,57.2213
2023-05-21T05:15:04.004Z,57.2060
2023-05-21T05:16:05.759Z,57.1995
2023-05-21T05:17:07.478Z,57.1655
2023-05-21T05:18:09.218Z,57.1576
2023-05-21T05:19:10.935Z,57.1410
2023-05-21T05:20:12.651Z,57.1286
2023-05-21T05:21:14.342Z,57.1223
2023-05-21T05:22:16.089Z,57.0910
2023-05-21T05:23:17.802Z,57.0602
2023-05-21T05:24:19.536Z,57.0601
2023-05-21T05:25:21.254Z,57.0709
2023-05-21T05:26:22.961Z,57.0926
2023-05-21T05:27:24.697Z,57.0780
2023-05-21T05:28:26.426Z,57.1146
2023-05-21T05:29:28.135Z,57.0981
2023-05-21T05:30:29.856Z,57.1402
2023-05-21T05:31:31.653Z,57.1304
2023-05-21T05:32:33.401Z,57.1436
2023-05-21T05:33:35.021Z,57.1421
2023-05-21T05:34:36.738Z,57.1409
2023-05-21T05:35:38.572Z,57.1396
2023-05-21T05:36:40.201Z,57.1319
2023-05-21T05:37:41.939Z,57.1486
2023-05-21T05:38:43.621Z,57.1318
2023-05-21T05:39:45.341Z,57.1341
2023-05-21T05:40:47.056Z,57.0971
2023-05-21T05:41:48.809Z,57.0895
2023-05-21T05:42:50.521Z,57.1194
2023-05-21T05:43:52.243Z,57.0957
2023-05-21T05:44:53.968Z,57.1022
2023-05-21T05:45:55.716Z,57.1067
2023-05-21T05:46:57.385Z,57.1131
2023-05-21T05:47:59.138Z,57.0968
2023-05-21T05:49:00.844Z,57.1253
2023-05-21T05:50:02.569Z,57.1356
2023-05-21T05:51:04.287Z,57.1257
2023-05-21T05:52:05.995Z,57.1207
2023-05-21T05:53:07.718Z,57.1602
2023-05-21T05:54:09.442Z,57.1541
2023-05-21T05:55:11.357Z,57.1549
2023-05-21T05:56:12.865Z,57.1448
2023-05-21T05:57:14.597Z,57.1238
2023-05-21T05:58:16.352Z,57.1943
2023-05-21T05:59:18.066Z,57.1567
2023-05-21T06:00:19.783Z,57.1420
2023-05-21T06:01:21.487Z,57.2004
2023-05-21T06:02:23.338Z,57.1523
2023-05-21T06:03:25.034Z,57.1548
2023-05-21T06:04:26.667Z,57.1713
2023-05-21T06:05:28.408Z,57.1905
2023-05-21T06:06:30.093Z,57.1976
2023-05-21T06:07:31.814Z,57.1551
2023-05-21T06:08:34.234Z,57.1815
2023-05-21T06:09:35.273Z,57.1987
2023-05-21T06:10:36.998Z,57.2141
2023-05-21T06:11:38.737Z,57.2157
2023-05-21T06:12:40.426Z,57.1988
2023-05-21T06:13:42.156Z,57.1945
2023-05-21T06:14:45.220Z,57.2162
2023-05-21T06:16:46.508Z,57.2723
2023-05-21T06:17:48.204Z,57.3097
2023-05-21T06:18:49.867Z,57.2938
2023-05-21T06:19:51.692Z,57.2960
2023-05-21T06:20:53.325Z,57.3054
2023-05-21T06:21:55.035Z,57.3100
2023-05-21T06:22:56.772Z,57.2997
2023-05-21T06:23:58.478Z,57.3388
2023-05-21T06:25:00.247Z,57.3588
2023-05-21T06:26:01.927Z,57.3593
2023-05-21T06:27:03.637Z,57.3370
2023-05-21T06:28:05.391Z,57.3770
2023-05-21T06:29:07.111Z,57.3942
2023-05-21T06:30:08.809Z,57.4076
2023-05-21T06:31:10.533Z,57.4428
2023-05-21T06:32:12.279Z,57.4550
2023-05-21T06:33:14.050Z,57.5305
2023-05-21T06:34:15.728Z,57.4833
2023-05-21T06:35:17.423Z,57.5258
2023-05-21T06:36:19.147Z,57.5307
2023-05-21T06:37:20.862Z,57.5962
2023-05-21T06:38:22.609Z,57.6735
2023-05-21T06:39:24.334Z,57.7137
2023-05-21T06:40:26.051Z,57.6816
2023-05-21T06:41:27.752Z,57.7451
2023-05-21T06:42:29.513Z,57.7843
2023-05-21T06:43:31.221Z,57.8374
2023-05-21T06:44:32.937Z,57.8808
2023-05-21T06:45:34.967Z,57.9702
2023-05-21T06:46:36.398Z,58.0251
2023-05-21T06:47:38.119Z,58.0849
2023-05-21T06:48:39.832Z,58.1478
2023-05-21T06:49:41.547Z,58.1548
2023-05-21T06:50:43.266Z,58.1467
2023-05-21T06:51:44.998Z,58.1560
2023-05-21T06:52:46.687Z,58.1363
2023-05-21T06:53:48.421Z,58.1958
2023-05-21T06:54:50.138Z,58.1730
2023-05-21T06:55:51.872Z,58.2106
2023-05-21T06:56:53.585Z,58.2622
2023-05-21T06:57:55.284Z,58.2787
2023-05-21T06:58:57.013Z,58.2321
2023-05-21T06:59:58.736Z,58.2280
2023-05-21T07:01:00.493Z,58.2560
2023-05-21T07:02:04.379Z,58.2601
2023-05-21T07:03:03.946Z,58.2801
2023-05-21T07:04:05.629Z,58.2715
2023-05-21T07:05:07.369Z,58.2666
2023-05-21T07:06:09.079Z,58.2716
2023-05-21T07:07:10.795Z,58.2767
2023-05-21T07:08:12.501Z,58.2780
2023-05-21T07:09:14.269Z,58.3233
2023-05-21T07:10:15.973Z,58.3183
2023-05-21T07:11:17.710Z,58.3278
2023-05-21T07:12:19.413Z,58.3032
2023-05-21T07:13:21.140Z,58.3131
2023-05-21T07:14:22.860Z,58.2540
2023-05-21T07:15:24.571Z,58.2803
2023-05-21T07:16:26.344Z,58.2728
2023-05-21T07:17:28.086Z,58.2607
2023-05-21T07:18:29.752Z,58.2676
2023-05-21T07:19:31.566Z,58.2881
2023-05-21T07:20:33.191Z,58.3405
2023-05-21T07:21:34.902Z,58.3626
2023-05-21T07:22:36.669Z,58.3322
2023-05-21T07:23:38.386Z,58.3255
2023-05-21T07:24:40.098Z,58.3298
2023-05-21T07:25:41.800Z,58.3275
2023-05-21T07:26:43.524Z,58.3311
2023-05-21T07:27:45.237Z,58.3000
2023-05-21T07:28:47.028Z,58.3177
2023-05-21T07:29:48.705Z,58.3337
2023-05-21T07:30:50.458Z,58.3756
2023-05-21T07:31:52.122Z,58.3669
2023-05-21T07:32:53.881Z,58.3977
2023-05-21T07:33:55.594Z,58.4301
2023-05-21T07:34:57.333Z,58.4550
2023-05-21T07:35:59.057Z,58.4178
2023-05-21T07:37:00.753Z,58.4270
2023-05-21T07:38:02.521Z,58.4766
2023-05-21T07:39:04.203Z,58.4956
2023-05-21T07:40:05.927Z,58.4466
2023-05-21T07:41:07.658Z,58.5044
2023-05-21T07:42:09.395Z,58.4991
2023-05-21T07:43:11.123Z,58.4683
2023-05-21T07:44:12.841Z,58.5497
2023-05-21T07:45:14.550Z,58.5526
2023-05-21T07:46:16.320Z,58.5600
2023-05-21T07:47:18.012Z,58.5972
2023-05-21T07:48:19.745Z,58.6324
2023-05-21T07:49:21.465Z,58.5613
2023-05-21T07:50:23.184Z,58.6131
2023-05-21T07:51:24.917Z,58.6428
2023-05-21T07:52:26.662Z,58.6445
2023-05-21T07:53:28.328Z,58.6564
2023-05-21T07:54:30.084Z,58.6698
2023-05-21T07:55:31.790Z,58.6167
2023-05-21T07:56:33.513Z,58.6767
2023-05-21T07:57:35.266Z,58.7060
2023-05-21T07:58:36.951Z,58.6883
2023-05-21T07:59:38.691Z,58.7243
2023-05-21T08:00:40.576Z,58.6502
2023-05-21T08:01:42.141Z,58.6619
2023-05-21T08:02:44.025Z,58.6617
2023-05-21T08:03:45.695Z,58.7044
2023-05-21T08:04:47.379Z,58.7280
2023-05-21T08:05:49.072Z,58.7580
2023-05-21T08:06:50.755Z,58.7874
2023-05-21T08:07:52.479Z,58.8343
2023-05-21T08:08:54.180Z,58.8023
2023-05-21T08:09:55.909Z,58.8623
2023-05-21T08:10:57.643Z,58.8332
2023-05-21T08:11:59.373Z,58.8726
2023-05-21T08:13:01.073Z,58.9030
2023-05-21T08:14:02.804Z,58.9002
2023-05-21T08:15:04.536Z,58.9584
2023-05-21T08:16:06.279Z,59.0377
2023-05-21T08:17:08.065Z,59.0704
2023-05-21T08:18:09.853Z,58.9433
2023-05-21T08:19:11.503Z,58.9659
2023-05-21T08:20:13.149Z,58.9314
2023-05-21T08:21:14.879Z,58.9549
2023-05-21T08:22:16.595Z,58.9990
2023-05-21T08:23:18.310Z,59.0093
2023-05-21T08:24:20.044Z,59.0208
2023-05-21T08:25:21.767Z,59.0246
2023-05-21T08:26:23.470Z,59.1611
2023-05-21T08:27:25.203Z,59.2466
2023-05-21T08:28:26.935Z,59.2419
2023-05-21T08:29:28.665Z,59.3402
2023-05-21T08:30:30.377Z,59.3848
2023-05-21T08:31:32.098Z,59.4880
2023-05-21T08:32:33.874Z,59.5040
2023-05-21T08:33:35.536Z,59.6182
2023-05-21T08:34:37.259Z,59.6061
2023-05-21T08:35:39.134Z,59.6451
2023-05-21T08:36:40.685Z,59.6851
2023-05-21T08:37:42.406Z,59.6404
2023-05-21T08:38:44.175Z,59.6948
2023-05-21T08:39:45.867Z,59.7326
2023-05-21T08:40:47.596Z,59.6844
2023-05-21T08:41:49.330Z,59.5970
2023-05-21T08:42:51.029Z,59.5968
2023-05-21T08:43:54.329Z,59.6224
2023-05-21T08:48:44.782Z,59.8394
2023-05-21T08:49:46.410Z,59.7557
2023-05-21T08:50:48.128Z,59.7898
2023-05-21T08:51:49.947Z,59.7677
2023-05-21T08:52:51.594Z,59.7616
2023-05-21T08:53:53.292Z,59.8020
2023-05-21T08:54:55.021Z,59.7994
2023-05-21T08:55:56.835Z,59.8433
2023-05-21T08:56:58.495Z,59.8718
2023-05-21T08:58:00.203Z,59.8851
2023-05-21T08:59:01.932Z,59.9634
2023-05-21T09:00:03.630Z,59.9681
2023-05-21T09:01:05.423Z,59.9324
2023-05-21T09:02:07.175Z,59.9822
2023-05-21T09:03:08.911Z,60.0865
2023-05-21T09:04:20.292Z,59.9712
2023-05-21T09:05:12.257Z,60.0391
2023-05-21T09:06:13.977Z,59.9958
2023-05-21T09:07:15.719Z,60.0120
2023-05-21T09:08:17.521Z,60.0486
2023-05-21T09:09:19.148Z,60.0516
2023-05-21T09:10:20.958Z,60.1323
2023-05-21T09:11:22.572Z,60.1941
2023-05-21T09:12:24.294Z,60.1864
2023-05-21T09:13:26.100Z,60.1867
2023-05-21T09:14:27.754Z,60.1984
2023-05-21T09:15:29.516Z,60.1858
2023-05-21T09:16:31.215Z,60.2045
2023-05-21T09:17:32.961Z,60.1747
2023-05-21T09:18:34.618Z,60.1024
2023-05-21T09:19:36.523Z,60.0751
2023-05-21T09:20:38.065Z,59.9474
2023-05-21T09:21:39.793Z,59.9344
2023-05-21T09:22:41.547Z,59.9202
2023-05-21T09:23:43.254Z,59.9394
2023-05-21T09:24:44.984Z,59.9430
2023-05-21T09:25:46.780Z,59.9224
2023-05-21T09:26:48.396Z,59.9019
2023-05-21T09:27:50.120Z,59.8783
2023-05-21T09:28:51.847Z,59.9131
2023-05-21T09:29:53.578Z,59.9751
2023-05-21T09:30:55.311Z,59.9292
2023-05-21T09:31:57.148Z,59.9041
2023-05-21T09:32:58.782Z,59.8526
2023-05-21T09:34:00.439Z,59.8552
2023-05-21T09:35:02.175Z,59.8717
2023-05-21T09:36:03.907Z,59.9755
2023-05-21T09:37:08.537Z,59.9188
2023-05-21T09:39:15.937Z,59.8782
2023-05-21T09:40:17.582Z,59.7767
2023-05-21T09:41:21.959Z,59.7266
2023-05-21T09:45:15.715Z,59.6560
2023-05-21T09:46:17.380Z,59.6597
2023-05-21T09:47:19.068Z,59.6632
2023-05-21T09:48:20.888Z,59.6406
2023-05-21T09:49:22.522Z,59.5567
2023-05-21T09:50:24.234Z,59.5015
2023-05-21T09:51:25.963Z,59.4983
2023-05-21T09:52:27.774Z,59.4635
2023-05-21T09:53:29.455Z,59.4533
2023-05-21T09:54:31.152Z,59.4779
2023-05-21T09:55:32.891Z,59.5604
2023-05-21T09:56:34.629Z,59.5296
2023-05-21T09:57:36.314Z,59.5245
2023-05-21T09:58:38.167Z,59.5206
2023-05-21T09:59:39.800Z,59.5959
2023-05-21T10:00:41.510Z,59.5963
2023-05-21T10:01:43.273Z,59.7752
2023-05-21T10:02:44.982Z,59.8152
2023-05-21T10:03:48.122Z,59.7668
2023-05-21T10:09:35.177Z,59.7796
2023-05-21T10:10:37.003Z,59.7717
2023-05-21T10:11:38.540Z,59.7716
2023-05-21T10:12:40.352Z,59.8009
2023-05-21T10:13:41.995Z,59.8748
2023-05-21T10:14:43.737Z,59.9658
2023-05-21T10:15:45.445Z,59.9810
2023-05-21T10:16:47.245Z,59.9061
2023-05-21T10:17:49.057Z,59.9438
2023-05-21T10:18:50.618Z,59.9803
2023-05-21T10:19:52.350Z,60.0099
2023-05-21T10:20:54.056Z,59.9148
2023-05-21T10:21:55.758Z,59.9346
2023-05-21T10:22:57.476Z,59.9479
2023-05-21T10:23:59.312Z,59.9519
2023-05-21T10:25:00.965Z,59.9573
2023-05-21T10:26:02.668Z,60.0039
2023-05-21T10:27:04.366Z,59.9694
2023-05-21T10:28:06.092Z,59.9422
2023-05-21T10:29:07.822Z,59.8736
2023-05-21T10:30:09.624Z,59.9102
2023-05-21T10:31:11.264Z,59.8982
2023-05-21T10:32:13.036Z,59.9292
2023-05-21T10:33:14.731Z,59.9876
2023-05-21T10:34:16.459Z,59.8930
2023-05-21T10:35:18.154Z,59.7989
2023-05-21T10:36:19.944Z,59.8133
2023-05-21T10:37:21.606Z,59.8158
2023-05-21T10:38:23.332Z,59.7961
2023-05-21T10:39:25.052Z,59.7948
2023-05-21T10:40:26.769Z,59.7296
2023-05-21T10:41:28.489Z,59.5996
2023-05-21T10:42:30.271Z,59.5152
2023-05-21T10:43:31.946Z,59.5618
2023-05-21T10:44:33.669Z,59.5169
2023-05-21T10:45:35.389Z,59.5000
2023-05-21T10:46:37.117Z,59.4852
2023-05-21T10:47:38.859Z,59.4753
2023-05-21T10:48:40.624Z,59.5864
2023-05-21T10:49:42.253Z,59.6533
2023-05-21T10:50:44.011Z,59.4753
2023-05-21T10:51:45.721Z,59.4873
2023-05-21T10:52:47.458Z,59.5529
2023-05-21T10:53:49.206Z,59.5047
2023-05-21T10:54:50.867Z,59.5124
2023-05-21T10:55:52.626Z,59.4736
2023-05-21T10:56:54.337Z,59.4311
2023-05-21T10:57:56.067Z,59.4114
2023-05-21T10:58:57.775Z,59.4385
2023-05-21T10:59:59.591Z,59.4021
2023-05-21T11:01:01.244Z,59.3297
2023-05-21T11:02:02.982Z,59.3321
2023-05-21T11:03:04.799Z,59.1863
2023-05-21T11:04:06.389Z,59.1728
2023-05-21T11:05:08.121Z,59.0780
2023-05-21T11:06:09.913Z,59.1099
2023-05-21T11:07:11.578Z,59.1338
2023-05-21T11:08:13.301Z,59.1349
2023-05-21T11:09:15.031Z,59.1488
2023-05-21T11:10:16.744Z,59.0778
2023-05-21T11:11:18.481Z,59.0954
2023-05-21T11:12:20.291Z,59.2563
2023-05-21T11:13:21.973Z,59.2840
2023-05-21T11:14:23.627Z,59.2108
2023-05-21T11:15:25.378Z,59.2415
2023-05-21T11:16:27.117Z,59.2520
2023-05-21T11:17:28.853Z,59.1795
2023-05-21T11:18:30.635Z,59.0426
2023-05-21T11:19:33.898Z,58.9727
2023-05-21T11:24:35.317Z,58.8520
2023-05-21T11:25:36.895Z,58.8950
2023-05-21T11:26:38.631Z,58.8159
2023-05-21T11:27:40.451Z,58.8548
2023-05-21T11:28:42.082Z,58.7907
2023-05-21T11:29:43.836Z,58.8529
2023-05-21T11:30:45.749Z,58.9555
2023-05-21T11:31:47.359Z,58.8157
2023-05-21T11:32:49.086Z,58.6921
2023-05-21T11:33:50.750Z,58.5828
2023-05-21T11:34:52.458Z,58.4750
2023-05-21T11:35:54.185Z,58.3607
2023-05-21T11:36:55.913Z,58.3470
2023-05-21T11:37:57.614Z,58.1783
2023-05-21T11:38:59.412Z,58.0513
2023-05-21T11:40:01.160Z,57.9204
2023-05-21T11:41:02.827Z,57.6755
2023-05-21T11:42:04.885Z,57.5826
2023-05-21T11:43:06.245Z,57.5286
2023-05-21T11:44:07.979Z,57.5629
2023-05-21T11:45:09.798Z,57.5110
2023-05-21T11:46:11.492Z,57.4906
2023-05-21T11:47:13.176Z,57.5712
2023-05-21T11:48:14.910Z,57.6161
2023-05-21T11:49:16.611Z,57.7685
2023-05-21T11:50:18.451Z,57.7513
2023-05-21T11:51:20.091Z,57.6992
2023-05-21T11:52:21.807Z,57.6363
2023-05-21T11:53:23.499Z,57.5402
2023-05-21T11:54:25.224Z,57.5024
2023-05-21T11:55:26.971Z,57.3853
2023-05-21T11:56:28.795Z,57.2270
2023-05-21T11:57:30.390Z,57.1079
2023-05-21T11:58:32.482Z,57.0013
2023-05-21T11:59:33.840Z,56.8923
2023-05-21T12:00:35.788Z,56.7978
2023-05-21T12:01:37.288Z,56.6099
2023-05-21T12:02:39.141Z,56.4114
2023-05-21T12:03:40.832Z,56.2541
2023-05-21T12:04:42.484Z,56.0520
2023-05-21T12:05:44.187Z,55.8066
2023-05-21T12:06:45.917Z,55.4738
2023-05-21T12:07:47.640Z,55.3917
2023-05-21T12:08:49.439Z,55.3186
2023-05-21T12:09:51.112Z,55.4008
2023-05-21T12:10:52.802Z,55.4243
2023-05-21T12:11:54.530Z,55.2709
2023-05-21T12:12:57.507Z,55.3384
2023-05-21T12:14:58.875Z,55.3273
2023-05-21T12:16:00.569Z,55.3224
2023-05-21T12:17:02.254Z,55.2983
2023-05-21T12:18:04.117Z,55.4545
2023-05-21T12:19:05.756Z,55.4404
2023-05-21T12:20:07.483Z,55.3699
2023-05-21T12:21:10.573Z,55.3411
2023-05-21T12:22:10.976Z,55.4059
2023-05-21T12:23:12.617Z,55.4481
2023-05-21T12:24:14.337Z,55.2441
2023-05-21T12:25:16.082Z,55.1269
2023-05-21T12:26:17.807Z,55.0840
2023-05-21T12:27:19.515Z,55.0869
2023-05-21T12:28:21.350Z,55.1150
2023-05-21T12:29:22.962Z,55.1084
2023-05-21T12:30:24.707Z,55.0788
2023-05-21T12:31:26.444Z,55.1339
2023-05-21T12:32:28.186Z,55.0765
2023-05-21T12:33:29.954Z,55.0947
2023-05-21T12:34:31.600Z,55.1638
2023-05-21T12:35:33.381Z,55.0548
2023-05-21T12:36:35.062Z,55.0186
2023-05-21T12:37:36.793Z,55.0258
2023-05-21T12:38:38.490Z,55.1014
2023-05-21T12:39:40.348Z,55.2085
2023-05-21T12:40:42.002Z,55.2378
2023-05-21T12:41:43.713Z,55.1400
2023-05-21T12:42:45.417Z,55.1348
2023-05-21T12:43:47.169Z,55.1823
2023-05-21T12:44:48.870Z,55.2061
2023-05-21T12:45:50.696Z,55.3074
2023-05-21T12:46:52.321Z,55.3721
2023-05-21T12:47:54.074Z,55.3849